Time;durP1;ratioP1;P1;durP2;ratioP2;P2;SDS_P1;SDS_P2;PMS_P1;PMS_P2;Temp;Humidity;BMP_temperature;BMP_pressure;BME280_temperature;BME280_humidity;BME280_pressure;Samples;Min_cycle;Max_cycle;Signal;HPM_P1;HPM_P2
2022/02/22 00:02:01;;;;;;;33.95;5.53;;;;;;;4.39;100.00;100462.56;10196668;28;20100;-73
2022/02/22 00:06:57;;;;;;;34.67;4.13;;;;;;;4.40;100.00;100459.56;10197130;28;20141;-73
2022/02/22 00:11:53;;;;;;;30.90;5.70;;;;;;;4.39;100.00;100479.59;10199439;28;20519;-72
2022/02/22 00:16:55;;;;;;;34.15;4.85;;;;;;;4.40;100.00;100477.69;10196862;28;20092;-72
2022/02/22 00:21:53;;;;;;;26.55;5.07;;;;;;;4.31;100.00;100480.19;10196912;28;20567;-71
2022/02/22 00:26:49;;;;;;;29.85;4.18;;;;;;;4.30;100.00;100486.72;10198113;28;20099;-71
2022/02/22 00:31:46;;;;;;;34.42;4.55;;;;;;;4.25;100.00;100505.69;10205453;28;20073;-73
2022/02/22 00:36:44;;;;;;;34.55;5.88;;;;;;;4.24;100.00;100503.25;10202911;28;20102;-73
2022/02/22 00:41:40;;;;;;;25.15;3.78;;;;;;;4.23;100.00;100507.88;10194944;28;20116;-75
2022/02/22 00:46:37;;;;;;;23.23;5.15;;;;;;;4.22;100.00;100533.28;10195091;28;20575;-72
2022/02/22 00:51:33;;;;;;;40.50;5.55;;;;;;;4.17;100.00;100557.69;10197229;28;20077;-72
2022/02/22 00:56:30;;;;;;;21.63;3.53;;;;;;;4.08;100.00;100562.06;10194893;28;20098;-72
2022/02/22 01:01:26;;;;;;;27.98;4.53;;;;;;;4.04;100.00;100569.09;10195211;28;20045;-72
2022/02/22 01:06:24;;;;;;;30.27;3.80;;;;;;;3.97;100.00;100581.06;10196788;28;20049;-72
2022/02/22 01:11:21;;;;;;;23.45;2.80;;;;;;;3.90;100.00;100613.00;10195274;28;20471;-72
2022/02/22 01:16:17;;;;;;;34.60;4.10;;;;;;;3.94;100.00;100608.63;10198262;28;20065;-72
2022/02/22 01:21:14;;;;;;;22.15;3.70;;;;;;;3.91;100.00;100630.84;10194223;28;20144;-72
2022/02/22 01:26:10;;;;;;;26.83;4.68;;;;;;;3.92;100.00;100629.78;10195530;28;20531;-72
2022/02/22 01:31:07;;;;;;;24.08;3.35;;;;;;;3.91;100.00;100641.66;10193506;28;20050;-72
2022/02/22 01:36:04;;;;;;;28.67;4.43;;;;;;;3.94;100.00;100661.94;10197562;28;20076;-72
2022/02/22 01:41:00;;;;;;;29.33;5.22;;;;;;;3.98;100.00;100668.44;10198797;28;20042;-75
2022/02/22 01:45:58;;;;;;;26.77;4.35;;;;;;;4.03;100.00;100676.53;10190115;28;20128;-74
2022/02/22 01:50:54;;;;;;;31.75;4.20;;;;;;;4.06;100.00;100691.41;10195925;28;20045;-75
2022/02/22 01:55:51;;;;;;;34.90;4.55;;;;;;;4.13;100.00;100702.75;10196505;28;20980;-75
2022/02/22 02:00:47;;;;;;;27.00;4.50;;;;;;;4.15;100.00;100711.41;10187823;28;20069;-73
2022/02/22 02:05:44;;;;;;;28.67;4.35;;;;;;;4.15;100.00;100723.03;10190433;28;20492;-68
2022/02/22 02:10:43;;;;;;;26.63;4.35;;;;;;;4.10;100.00;100727.66;10199109;28;20053;-69
2022/02/22 02:15:39;;;;;;;40.55;4.95;;;;;;;4.15;100.00;100736.56;10203295;28;20089;-69
2022/02/22 02:20:36;;;;;;;33.70;4.35;;;;;;;4.20;100.00;100739.28;10199529;28;20112;-70
2022/02/22 02:25:32;;;;;;;46.88;5.97;;;;;;;4.20;100.00;100762.81;10198261;28;20550;-69
2022/02/22 02:30:29;;;;;;;36.83;5.78;;;;;;;4.24;100.00;100774.72;10202458;28;20041;-73
2022/02/22 02:35:26;;;;;;;33.90;4.07;;;;;;;4.16;100.00;100777.97;10205545;28;20108;-72
2022/02/22 02:40:23;;;;;;;29.05;4.18;;;;;;;4.11;100.00;100780.72;10198126;28;20080;-69
2022/02/22 02:45:20;;;;;;;25.60;3.85;;;;;;;4.05;100.00;100784.50;10195508;28;20104;-69
2022/02/22 02:50:17;;;;;;;24.83;2.70;;;;;;;4.06;100.00;100805.88;10195543;28;20124;-73
2022/02/22 02:55:13;;;;;;;17.02;3.80;;;;;;;4.00;100.00;100807.75;10196584;28;20046;-72
2022/02/22 03:00:11;;;;;;;34.78;5.28;;;;;;;4.03;100.00;100805.59;10194422;28;20050;-71
2022/02/22 03:05:09;;;;;;;26.13;4.50;;;;;;;4.02;100.00;100804.78;10197068;28;20483;-68
2022/02/22 03:10:06;;;;;;;36.95;5.55;;;;;;;4.04;100.00;100823.44;10193448;28;20137;-69
2022/02/22 03:15:03;;;;;;;28.08;3.97;;;;;;;4.00;100.00;100823.19;10194135;28;20042;-72
2022/02/22 03:20:00;;;;;;;29.77;4.60;;;;;;;3.96;100.00;100855.38;10193653;28;20543;-72
2022/02/22 03:24:57;;;;;;;29.00;4.72;;;;;;;4.02;100.00;100839.16;10192317;28;20101;-72
2022/02/22 03:29:53;;;;;;;28.65;4.28;;;;;;;4.06;100.00;100848.34;10194367;28;20076;-72
2022/02/22 03:34:50;;;;;;;20.65;3.40;;;;;;;4.08;100.00;100851.59;10192976;28;20133;-72
2022/02/22 03:39:46;;;;;;;31.55;3.90;;;;;;;4.08;100.00;100854.28;10196318;28;20499;-70
2022/02/22 03:44:43;;;;;;;29.02;3.90;;;;;;;4.02;100.00;100858.09;10195409;28;20072;-69
2022/02/22 03:49:39;;;;;;;38.83;5.95;;;;;;;3.97;100.00;100870.53;10199504;28;20099;-69
2022/02/22 03:54:36;;;;;;;29.88;4.22;;;;;;;3.95;100.00;100880.00;10198035;28;20045;-72
2022/02/22 03:59:32;;;;;;;26.23;3.67;;;;;;;3.98;100.00;100885.66;10193815;28;20042;-73
2022/02/22 04:04:29;;;;;;;34.10;4.22;;;;;;;4.02;100.00;100898.69;10194644;28;20488;-69
2022/02/22 04:09:25;;;;;;;36.72;5.68;;;;;;;4.03;100.00;100898.38;10192061;28;20136;-69
2022/02/22 04:14:21;;;;;;;25.98;4.97;;;;;;;3.98;100.00;100891.09;10194309;28;20065;-69
2022/02/22 04:19:18;;;;;;;29.10;4.47;;;;;;;3.94;100.00;100910.81;10195785;28;20476;-73
2022/02/22 04:24:17;;;;;;;22.38;4.38;;;;;;;3.97;100.00;100910.31;10196587;28;20038;-73
2022/02/22 04:29:13;;;;;;;33.75;3.65;;;;;;;3.97;100.00;100921.94;10193936;28;20467;-72
2022/02/22 04:34:10;;;;;;;36.17;4.80;;;;;;;4.02;100.00;100912.22;10196349;28;20083;-69
2022/02/22 04:39:06;;;;;;;20.88;3.78;;;;;;;4.00;100.00;100943.03;10194472;28;20137;-73
2022/02/22 04:44:03;;;;;;;14.90;2.40;;;;;;;3.86;100.00;100968.97;10196139;28;20121;-71
2022/02/22 04:48:59;;;;;;;15.30;2.20;;;;;;;3.66;100.00;100979.72;10193313;28;20411;-73
2022/02/22 04:53:57;;;;;;;15.90;2.95;;;;;;;3.41;100.00;100967.72;10197646;28;20042;-73
2022/02/22 04:58:55;;;;;;;15.85;2.55;;;;;;;3.43;100.00;100968.28;10193794;28;20038;-72
2022/02/22 05:03:52;;;;;;;13.15;2.13;;;;;;;3.37;100.00;100974.75;10188695;28;20679;-72
2022/02/22 05:08:48;;;;;;;18.27;3.47;;;;;;;3.30;100.00;100976.88;10191069;28;20080;-72
2022/02/22 05:13:45;;;;;;;20.77;3.08;;;;;;;3.41;100.00;100965.03;10188327;28;20567;-74
2022/02/22 05:18:41;;;;;;;22.83;4.25;;;;;;;3.44;100.00;100999.66;10182538;28;20095;-73
2022/02/22 05:23:40;;;;;;;19.20;2.70;;;;;;;3.47;100.00;101009.13;10182123;28;20034;-75
2022/02/22 05:28:40;;;;;;;22.92;3.35;;;;;;;3.49;100.00;101007.78;10188916;28;20046;-75
2022/02/22 05:33:41;;;;;;;21.85;2.63;;;;;;;3.59;100.00;101002.41;10200602;28;20045;-73
2022/02/22 05:38:39;;;;;;;20.23;2.72;;;;;;;3.62;100.00;101016.47;10189884;28;20042;-73
2022/02/22 05:43:41;;;;;;;25.90;3.20;;;;;;;3.70;100.00;101024.91;10190108;28;20056;-73
2022/02/22 05:48:41;;;;;;;19.27;2.78;;;;;;;3.71;100.00;101025.72;10189404;28;20499;-74
2022/02/22 05:53:38;;;;;;;26.60;4.15;;;;;;;3.73;100.00;101028.97;10220496;28;20045;-72
2022/02/22 05:58:35;;;;;;;21.75;2.58;;;;;;;3.78;100.00;101031.69;10184807;28;20089;-72
2022/02/22 06:03:32;;;;;;;19.80;3.88;;;;;;;3.86;100.00;101039.31;10187512;28;20089;-72
2022/02/22 06:08:29;;;;;;;25.55;3.15;;;;;;;3.87;100.00;101048.22;10185734;28;20137;-72
2022/02/22 06:13:26;;;;;;;18.77;2.15;;;;;;;3.89;100.00;101060.41;10187749;28;20523;-72
2022/02/22 06:18:22;;;;;;;24.85;3.60;;;;;;;3.98;100.00;101053.41;10189570;28;20133;-72
2022/02/22 06:23:18;;;;;;;30.05;3.97;;;;;;;3.92;100.00;101073.44;10183996;28;20042;-71
2022/02/22 06:28:15;;;;;;;28.20;3.22;;;;;;;3.91;100.00;101079.91;10184564;28;20045;-72
2022/02/22 06:33:12;;;;;;;22.35;3.55;;;;;;;3.89;100.00;101079.34;10189497;28;20081;-71
2022/02/22 06:38:10;;;;;;;22.42;3.85;;;;;;;3.92;100.00;101081.56;10185010;28;20084;-74
2022/02/22 06:43:06;;;;;;;26.40;4.55;;;;;;;3.89;100.00;101092.06;10183179;28;20129;-74
2022/02/22 06:53:47;;;;;;;19.30;4.27;;;;;;;3.98;100.00;101107.53;10880343;23;20059;-69
2022/02/22 11:54:06;;;;;;;21.17;3.80;;;;;;;6.57;100.00;101235.56;10078058;28;20051;-73
2022/02/22 12:05:28;;;;;;;26.50;3.60;;;;;;;6.70;100.00;101262.16;10093591;28;20047;-73
2022/02/22 12:10:25;;;;;;;26.48;3.03;;;;;;;6.61;100.00;101244.78;10125934;28;20051;-74
2022/02/22 12:15:31;;;;;;;20.05;3.55;;;;;;;6.62;100.00;101243.72;10103668;28;20101;-73
2022/02/22 12:20:29;;;;;;;23.73;3.00;;;;;;;6.58;100.00;101240.72;10074364;28;20059;-73
2022/02/22 12:25:26;;;;;;;20.00;4.80;;;;;;;6.64;100.00;101236.09;10076037;28;20568;-73
2022/02/22 12:30:36;;;;;;;28.35;3.08;;;;;;;6.75;100.00;101234.94;10076473;28;20636;-74
2022/02/22 12:35:38;;;;;;;19.45;3.15;;;;;;;6.66;100.00;101233.88;10082896;28;20066;-73
2022/02/22 12:40:36;;;;;;;18.58;3.08;;;;;;;6.58;100.00;101223.63;10108422;28;20461;-73
2022/02/22 12:45:55;;;;;;;20.80;2.95;;;;;;;6.60;100.00;101218.72;10085717;28;20043;-73
2022/02/22 12:50:58;;;;;;;27.70;4.93;;;;;;;6.64;100.00;101209.75;10119369;28;20051;-73
2022/02/22 12:55:54;;;;;;;28.38;4.53;;;;;;;6.63;100.00;101190.97;10086833;28;20078;-73
2022/02/22 13:00:51;;;;;;;17.48;3.47;;;;;;;6.52;100.00;101184.78;10113489;28;20085;-73
2022/02/22 13:05:48;;;;;;;17.33;3.95;;;;;;;6.58;100.00;101158.41;10102712;28;20053;-73
2022/02/22 13:10:47;;;;;;;21.45;3.00;;;;;;;6.71;100.00;101120.56;10106272;28;20114;-73
2022/02/22 13:15:44;;;;;;;22.00;3.33;;;;;;;6.81;100.00;101095.22;10100433;28;20141;-73
2022/02/22 13:20:45;;;;;;;26.73;4.43;;;;;;;6.82;100.00;101085.16;10075468;28;20039;-74
2022/02/22 13:25:44;;;;;;;18.60;4.27;;;;;;;6.68;100.00;101084.97;10086210;28;20653;-73
2022/02/22 13:31:13;;;;;;;16.60;3.10;;;;;;;6.69;100.00;101121.94;10111857;28;20117;-73
2022/02/22 13:36:14;;;;;;;16.60;3.40;;;;;;;6.68;100.00;101101.28;10100485;28;20106;-73
2022/02/22 13:41:15;;;;;;;19.88;3.20;;;;;;;6.85;100.00;101079.97;10105917;28;20078;-73
2022/02/22 13:46:11;;;;;;;19.67;3.67;;;;;;;6.97;100.00;101070.63;10089188;28;20050;-72
2022/02/22 13:51:10;;;;;;;14.25;2.78;;;;;;;6.99;100.00;101052.13;10104436;28;20109;-73
2022/02/22 13:56:08;;;;;;;20.90;3.50;;;;;;;6.95;100.00;101046.44;10092227;28;20051;-73
2022/02/22 14:01:09;;;;;;;24.15;3.92;;;;;;;6.82;100.00;101037.03;10111460;28;20057;-73
2022/02/22 14:06:06;;;;;;;20.23;3.08;;;;;;;6.88;100.00;101025.03;10100652;28;20520;-73
2022/02/22 14:11:06;;;;;;;20.92;3.42;;;;;;;6.76;100.00;101015.63;10114341;28;20055;-73
2022/02/22 14:16:03;;;;;;;25.45;3.10;;;;;;;6.68;100.00;101008.88;10089058;28;20438;-73
2022/02/22 14:20:59;;;;;;;19.33;3.58;;;;;;;6.68;100.00;100995.31;10079462;28;20454;-72
2022/02/22 14:25:56;;;;;;;16.83;2.88;;;;;;;6.84;100.00;100975.03;10077733;28;20521;-73
2022/02/22 14:30:54;;;;;;;21.45;3.88;;;;;;;6.47;100.00;100971.00;10079880;28;20122;-72
2022/02/22 14:35:51;;;;;;;17.20;3.53;;;;;;;6.37;100.00;100968.38;10093819;28;20046;-73
2022/02/22 14:40:47;;;;;;;22.73;3.65;;;;;;;6.32;100.00;100957.56;10118331;28;20051;-73
2022/02/22 14:45:44;;;;;;;19.02;2.95;;;;;;;6.21;100.00;100928.88;10105151;28;20082;-72
2022/02/22 14:50:41;;;;;;;20.23;3.83;;;;;;;6.10;100.00;100923.53;10078698;28;20047;-72
2022/02/22 14:55:38;;;;;;;21.40;3.90;;;;;;;6.14;100.00;100925.66;10105052;28;20178;-74
2022/02/22 15:00:35;;;;;;;19.85;2.85;;;;;;;6.11;100.00;100908.03;10110917;28;20572;-73
2022/02/22 15:05:32;;;;;;;26.90;3.47;;;;;;;6.09;100.00;100893.94;10084772;28;20054;-75
2022/02/22 15:10:29;;;;;;;21.75;5.10;;;;;;;6.04;100.00;100897.50;10077717;28;20113;-73
2022/02/22 15:15:26;;;;;;;15.38;3.83;;;;;;;5.94;100.00;100897.59;10085699;28;20050;-73
2022/02/22 15:20:22;;;;;;;17.45;3.15;;;;;;;5.90;100.00;100880.22;10077258;28;20579;-73
2022/02/22 15:25:19;;;;;;;24.73;4.00;;;;;;;5.84;100.00;100875.91;10085490;28;20528;-74
2022/02/22 15:30:15;;;;;;;17.88;3.10;;;;;;;5.84;100.00;100865.03;10117022;28;20082;-73
2022/02/22 15:35:15;;;;;;;21.95;3.28;;;;;;;5.74;100.00;100855.06;10095740;28;20387;-73
2022/02/22 15:40:12;;;;;;;21.35;4.43;;;;;;;5.66;100.00;100839.38;10077329;28;20058;-73
2022/02/22 15:45:09;;;;;;;19.98;3.90;;;;;;;5.67;100.00;100814.69;10092911;28;20091;-72
2022/02/22 15:50:06;;;;;;;20.20;4.88;;;;;;;5.69;100.00;100804.38;10088197;28;20059;-74
2022/02/22 15:55:03;;;;;;;27.92;3.97;;;;;;;5.79;100.00;100799.97;10078934;28;20106;-70
2022/02/22 16:00:04;;;;;;;19.73;4.10;;;;;;;5.64;100.00;100779.16;10087169;28;20097;-73
2022/02/22 16:05:04;;;;;;;15.80;3.00;;;;;;;5.66;100.00;100766.97;10092083;28;20054;-72
2022/02/22 16:10:03;;;;;;;22.60;5.30;;;;;;;5.59;100.00;100771.91;10095071;28;20047;-69
2022/02/22 16:15:01;;;;;;;19.65;3.70;;;;;;;5.69;100.00;100757.44;10078743;28;22120;-69
2022/02/22 16:20:07;;;;;;;17.77;3.40;;;;;;;5.71;100.00;100755.28;10091227;28;20074;-69
2022/02/22 16:25:05;;;;;;;12.27;3.90;;;;;;;5.78;100.00;100735.94;10089422;28;20106;-70
2022/02/22 16:30:02;;;;;;;16.80;4.18;;;;;;;5.78;100.00;100746.78;10090540;28;20105;-70
2022/02/22 16:34:59;;;;;;;13.18;4.25;;;;;;;5.80;100.00;100739.16;10083515;28;20050;-69
2022/02/22 16:39:55;;;;;;;18.88;5.30;;;;;;;5.76;100.00;100728.09;10082838;28;20066;-70
2022/02/22 16:44:53;;;;;;;15.80;5.25;;;;;;;5.83;100.00;100722.34;10076115;28;20075;-71
2022/02/22 16:49:50;;;;;;;18.00;6.95;;;;;;;5.76;100.00;100694.72;10107369;28;20078;-70
2022/02/22 16:54:46;;;;;;;18.85;7.30;;;;;;;5.79;100.00;100694.16;10085284;28;20051;-71
2022/02/22 16:59:44;;;;;;;18.15;8.02;;;;;;;5.79;100.00;100677.88;10096939;28;20066;-71
2022/02/22 17:04:40;;;;;;;24.80;8.98;;;;;;;5.79;100.00;100672.44;10092894;28;20046;-71
2022/02/22 17:09:37;;;;;;;21.05;9.18;;;;;;;5.82;100.00;100699.00;10086176;28;20169;-71
2022/02/22 17:14:34;;;;;;;21.42;10.13;;;;;;;5.83;100.00;100668.06;10092068;28;20090;-71
2022/02/22 17:19:34;;;;;;;24.35;12.13;;;;;;;5.86;100.00;100648.50;10086690;28;20424;-71
2022/02/22 17:24:30;;;;;;;20.20;10.45;;;;;;;5.90;100.00;100652.25;10077418;28;20051;-69
2022/02/22 17:29:27;;;;;;;19.60;11.25;;;;;;;5.91;100.00;100637.56;10086649;28;20134;-68
2022/02/22 17:34:25;;;;;;;26.25;12.60;;;;;;;5.95;100.00;100638.66;10084138;28;20047;-69
2022/02/22 17:39:22;;;;;;;21.50;12.25;;;;;;;5.99;100.00;100639.69;10085401;28;20130;-68
2022/02/22 17:44:18;;;;;;;22.70;14.02;;;;;;;5.96;100.00;100618.53;10085613;28;20438;-70
2022/02/22 17:49:15;;;;;;;19.02;13.27;;;;;;;6.02;100.00;100605.75;10092185;28;20055;-70
2022/02/22 17:54:12;;;;;;;24.23;14.60;;;;;;;6.05;100.00;100607.88;10090567;28;20627;-70
2022/02/22 17:59:08;;;;;;;24.10;12.35;;;;;;;6.05;100.00;100611.38;10086935;28;20102;-71
2022/02/22 18:04:06;;;;;;;29.55;16.02;;;;;;;6.09;100.00;100601.56;10087332;28;20117;-71
2022/02/22 18:09:03;;;;;;;26.92;16.38;;;;;;;6.15;100.00;100575.19;10086585;28;20051;-71
2022/02/22 18:14:03;;;;;;;25.60;14.88;;;;;;;6.19;100.00;100568.03;10089086;28;20741;-71
2022/02/22 18:19:01;;;;;;;23.73;14.27;;;;;;;6.24;100.00;100561.75;10081170;28;20529;-71
2022/02/22 18:23:58;;;;;;;24.40;16.25;;;;;;;6.29;100.00;100561.69;10085638;28;20078;-71
2022/02/22 18:28:57;;;;;;;28.60;16.25;;;;;;;6.31;100.00;100562.19;10111296;28;20078;-71
2022/02/22 18:33:56;;;;;;;28.90;17.45;;;;;;;6.35;100.00;100565.94;10087686;28;20118;-71
2022/02/22 18:38:53;;;;;;;32.58;17.08;;;;;;;6.38;100.00;100551.75;10087026;28;20039;-71
2022/02/22 18:43:50;;;;;;;27.58;15.30;;;;;;;6.41;100.00;100555.81;10091596;28;20097;-71
2022/02/22 18:48:46;;;;;;;25.88;15.40;;;;;;;6.46;100.00;100563.88;10084463;28;20043;-71
2022/02/22 18:53:46;;;;;;;22.33;14.23;;;;;;;6.44;100.00;100569.59;10090618;28;20325;-72
2022/02/22 18:58:42;;;;;;;27.65;16.73;;;;;;;6.47;100.00;100568.22;10080769;28;20042;-71
2022/02/22 19:03:39;;;;;;;28.42;17.85;;;;;;;6.53;100.00;100567.03;10091673;28;20417;-71
2022/02/22 19:08:36;;;;;;;28.63;18.35;;;;;;;6.53;100.00;100589.56;10081036;28;20075;-70
2022/02/22 19:13:32;;;;;;;21.58;12.00;;;;;;;6.57;100.00;100578.13;10082732;28;20103;-70
2022/02/22 19:18:29;;;;;;;16.60;8.27;;;;;;;6.57;100.00;100618.88;10087449;28;20051;-70
2022/02/22 19:23:25;;;;;;;16.38;7.65;;;;;;;6.58;100.00;100601.47;10088777;28;20514;-70
2022/02/22 19:28:22;;;;;;;23.70;6.07;;;;;;;6.48;100.00;100608.66;10090182;28;20046;-71
2022/02/22 19:33:19;;;;;;;15.32;3.28;;;;;;;6.32;100.00;100623.56;10105647;28;20043;-72
2022/02/22 19:38:16;;;;;;;32.08;5.00;;;;;;;6.22;100.00;100631.81;10091164;28;20142;-71
2022/02/22 19:43:12;;;;;;;30.25;3.65;;;;;;;6.19;100.00;100632.41;10092277;28;20058;-72
2022/02/22 19:48:09;;;;;;;23.75;2.97;;;;;;;6.11;100.00;100650.94;10098951;28;20782;-71
2022/02/22 19:53:07;;;;;;;23.90;3.20;;;;;;;5.99;100.00;100674.97;10085599;28;20055;-71
2022/02/22 19:58:05;;;;;;;25.33;4.25;;;;;;;5.90;100.00;100679.38;10106194;28;20145;-71
2022/02/22 20:03:04;;;;;;;35.85;4.43;;;;;;;5.91;100.00;100689.94;10081910;28;20144;-70
2022/02/22 20:08:00;;;;;;;29.13;3.47;;;;;;;5.86;100.00;100727.19;10076108;28;20169;-70
2022/02/22 20:12:57;;;;;;;27.75;3.65;;;;;;;5.83;100.00;100725.06;10084081;28;20055;-70
2022/02/22 20:17:53;;;;;;;30.33;5.30;;;;;;;5.78;100.00;100742.19;10091608;28;20155;-70
2022/02/22 20:22:53;;;;;;;30.25;2.80;;;;;;;5.79;100.00;100753.84;10106443;28;20058;-70
2022/02/22 20:27:49;;;;;;;21.95;3.22;;;;;;;5.74;100.00;100760.13;10083063;28;20519;-70
2022/02/22 20:32:46;;;;;;;29.42;4.97;;;;;;;5.66;100.00;100783.25;10075680;28;20050;-70
2022/02/22 20:37:43;;;;;;;24.10;3.80;;;;;;;5.65;100.00;100773.47;10070924;28;20043;-70
2022/02/22 20:42:40;;;;;;;32.33;3.55;;;;;;;5.68;100.00;100802.75;10081711;28;20763;-70
2022/02/22 20:47:41;;;;;;;32.20;5.43;;;;;;;5.70;100.00;100827.69;10090909;28;20046;-69
2022/02/22 20:52:38;;;;;;;27.80;4.05;;;;;;;5.72;100.00;100829.31;10084589;28;20109;-69
2022/02/22 20:57:35;;;;;;;33.45;4.30;;;;;;;5.77;100.00;100821.13;10072367;28;20109;-68
2022/02/22 21:02:31;;;;;;;33.47;5.55;;;;;;;5.79;100.00;100829.81;10080948;28;20059;-70
2022/02/22 21:07:28;;;;;;;30.27;4.53;;;;;;;5.81;100.00;100849.34;10073588;28;20142;-69
2022/02/22 21:12:25;;;;;;;23.27;3.72;;;;;;;5.81;100.00;100876.47;10083515;28;20525;-68
2022/02/22 21:17:23;;;;;;;29.52;4.38;;;;;;;5.73;100.00;100883.28;10097454;28;20039;-69
2022/02/22 21:22:19;;;;;;;41.47;6.10;;;;;;;5.67;100.00;100882.53;10092533;28;20050;-69
2022/02/22 21:27:16;;;;;;;28.58;4.82;;;;;;;5.57;100.00;100901.56;10088936;28;20051;-68
2022/02/22 21:32:12;;;;;;;23.27;4.75;;;;;;;5.53;100.00;100938.47;10089940;28;20051;-68
2022/02/22 21:37:10;;;;;;;37.55;5.10;;;;;;;5.57;100.00;100942.25;10081474;28;20094;-68
2022/02/22 21:42:07;;;;;;;24.13;4.18;;;;;;;5.57;100.00;100944.97;10073444;28;20055;-68
2022/02/22 21:47:04;;;;;;;35.13;4.70;;;;;;;5.61;100.00;100948.72;10092181;28;20109;-68
2022/02/22 21:52:00;;;;;;;43.10;5.28;;;;;;;5.59;100.00;100952.81;10073105;28;20116;-69
2022/02/22 21:57:02;;;;;;;26.15;2.95;;;;;;;5.50;100.00;100985.16;10096888;28;20050;-70
2022/02/22 22:02:01;;;;;;;27.43;4.50;;;;;;;5.44;100.00;100991.66;10112195;28;20043;-72
2022/02/22 22:06:57;;;;;;;29.15;3.95;;;;;;;5.39;100.00;101026.94;10092099;28;20048;-70
2022/02/22 22:11:54;;;;;;;32.95;4.97;;;;;;;5.33;100.00;101028.03;10073210;28;20106;-72
2022/02/22 22:16:51;;;;;;;39.70;9.20;;;;;;;5.32;100.00;101048.13;10100468;28;20138;-71
2022/02/22 22:21:48;;;;;;;35.15;6.53;;;;;;;5.27;100.00;101036.19;10107890;28;20133;-71
2022/02/22 22:26:44;;;;;;;30.70;4.13;;;;;;;5.23;100.00;101056.00;10091386;28;20042;-71
2022/02/22 22:31:43;;;;;;;29.70;3.65;;;;;;;5.18;100.00;101075.78;10077985;28;20058;-71
2022/02/22 22:36:39;;;;;;;34.10;4.78;;;;;;;5.13;100.00;101072.25;10105867;28;20070;-69
2022/02/22 22:41:37;;;;;;;26.25;3.50;;;;;;;5.12;100.00;101087.69;10089464;28;20505;-71
2022/02/22 22:46:33;;;;;;;31.63;4.25;;;;;;;5.10;100.00;101095.28;10096475;28;20078;-71
2022/02/22 22:51:30;;;;;;;45.22;4.72;;;;;;;5.07;100.00;101109.41;10079548;28;20147;-71
2022/02/22 22:56:26;;;;;;;36.53;4.95;;;;;;;5.06;100.00;101124.03;10093707;28;20047;-74
2022/02/22 23:01:26;;;;;;;35.08;5.43;;;;;;;5.01;100.00;101140.28;10116367;28;20101;-69
2022/02/22 23:16:58;;;;;;;28.80;3.63;;;;;;;5.02;100.00;101175.25;10094638;28;20043;-72
2022/02/22 23:21:58;;;;;;;34.47;3.92;;;;;;;4.99;100.00;101180.38;10109376;28;20055;-72
2022/02/22 23:26:58;;;;;;;42.53;5.75;;;;;;;4.98;100.00;101189.59;10101485;28;20070;-72
2022/02/22 23:31:54;;;;;;;37.55;4.55;;;;;;;4.95;100.00;101195.56;10117133;28;20051;-72
2022/02/22 23:36:51;;;;;;;35.63;5.57;;;;;;;4.98;100.00;101192.31;10088781;28;20066;-71
2022/02/22 23:41:51;;;;;;;21.85;2.78;;;;;;;5.00;100.00;101219.97;10091381;28;20078;-72
2022/02/22 23:46:47;;;;;;;38.22;5.38;;;;;;;5.07;100.00;101225.94;10095675;28;20043;-73
2022/02/22 23:51:44;;;;;;;34.08;5.43;;;;;;;5.13;100.00;101238.44;10116880;28;20516;-73
2022/02/22 23:56:41;;;;;;;32.03;5.47;;;;;;;5.18;100.00;101249.28;10094943;28;20098;-73
